sensor_id;sensor_type;location;lat;lon;timestamp;temperature;humidity
19389;DHT22;9830;41.876;23.474;2023-04-06T00:01:45;1.60;99.90
19389;DHT22;9830;41.876;23.474;2023-04-06T00:04:12;1.60;99.90
19389;DHT22;9830;41.876;23.474;2023-04-06T00:06:37;1.60;99.90
19389;DHT22;9830;41.876;23.474;2023-04-06T00:09:03;1.60;99.90
19389;DHT22;9830;41.876;23.474;2023-04-06T00:11:29;1.50;99.90
19389;DHT22;9830;41.876;23.474;2023-04-06T00:13:55;1.60;99.90
19389;DHT22;9830;41.876;23.474;2023-04-06T00:16:20;1.50;99.90
19389;DHT22;9830;41.876;23.474;2023-04-06T00:18:46;1.50;99.90
19389;DHT22;9830;41.876;23.474;2023-04-06T00:21:12;1.50;99.90
19389;DHT22;9830;41.876;23.474;2023-04-06T00:23:40;1.50;99.90
19389;DHT22;9830;41.876;23.474;2023-04-06T00:26:06;1.50;99.90
19389;DHT22;9830;41.876;23.474;2023-04-06T00:28:31;1.50;99.90
19389;DHT22;9830;41.876;23.474;2023-04-06T00:30:57;1.50;99.90
19389;DHT22;9830;41.876;23.474;2023-04-06T00:33:23;1.50;99.90
19389;DHT22;9830;41.876;23.474;2023-04-06T00:35:49;1.50;99.90
19389;DHT22;9830;41.876;23.474;2023-04-06T00:38:15;1.50;99.90
19389;DHT22;9830;41.876;23.474;2023-04-06T00:40:41;1.50;99.90
19389;DHT22;9830;41.876;23.474;2023-04-06T00:43:10;1.40;99.90
19389;DHT22;9830;41.876;23.474;2023-04-06T00:45:37;1.40;99.90
19389;DHT22;9830;41.876;23.474;2023-04-06T00:48:03;1.30;99.90
19389;DHT22;9830;41.876;23.474;2023-04-06T00:50:29;1.30;99.90
19389;DHT22;9830;41.876;23.474;2023-04-06T00:52:55;1.20;99.90
19389;DHT22;9830;41.876;23.474;2023-04-06T00:55:21;1.20;99.90
19389;DHT22;9830;41.876;23.474;2023-04-06T00:57:47;1.20;99.90
19389;DHT22;9830;41.876;23.474;2023-04-06T01:00:13;1.20;99.90
19389;DHT22;9830;41.876;23.474;2023-04-06T01:02:39;1.20;99.90
19389;DHT22;9830;41.876;23.474;2023-04-06T01:05:05;1.20;99.90
19389;DHT22;9830;41.876;23.474;2023-04-06T01:07:31;1.20;99.90
19389;DHT22;9830;41.876;23.474;2023-04-06T01:09:57;1.30;99.90
19389;DHT22;9830;41.876;23.474;2023-04-06T01:12:23;1.30;99.90
19389;DHT22;9830;41.876;23.474;2023-04-06T01:14:49;1.30;99.90
19389;DHT22;9830;41.876;23.474;2023-04-06T01:17:15;1.40;99.90
19389;DHT22;9830;41.876;23.474;2023-04-06T01:19:41;1.40;99.90
19389;DHT22;9830;41.876;23.474;2023-04-06T01:22:07;1.40;99.90
19389;DHT22;9830;41.876;23.474;2023-04-06T01:24:33;1.50;99.90
19389;DHT22;9830;41.876;23.474;2023-04-06T01:26:58;1.50;99.90
19389;DHT22;9830;41.876;23.474;2023-04-06T01:29:25;1.50;99.90
19389;DHT22;9830;41.876;23.474;2023-04-06T01:31:50;1.50;99.90
19389;DHT22;9830;41.876;23.474;2023-04-06T01:34:16;1.50;99.90
19389;DHT22;9830;41.876;23.474;2023-04-06T01:36:42;1.50;99.90
19389;DHT22;9830;41.876;23.474;2023-04-06T01:39:08;1.40;99.90
19389;DHT22;9830;41.876;23.474;2023-04-06T01:41:34;1.40;99.90
19389;DHT22;9830;41.876;23.474;2023-04-06T01:43:59;1.40;99.90
19389;DHT22;9830;41.876;23.474;2023-04-06T01:46:25;1.40;99.90
19389;DHT22;9830;41.876;23.474;2023-04-06T01:48:51;1.40;99.90
19389;DHT22;9830;41.876;23.474;2023-04-06T01:51:17;1.40;99.90
19389;DHT22;9830;41.876;23.474;2023-04-06T01:53:43;1.30;99.90
19389;DHT22;9830;41.876;23.474;2023-04-06T01:56:09;1.30;99.90
19389;DHT22;9830;41.876;23.474;2023-04-06T01:58:34;1.30;99.90
19389;DHT22;9830;41.876;23.474;2023-04-06T02:01:00;1.20;99.90
19389;DHT22;9830;41.876;23.474;2023-04-06T02:03:26;1.10;99.90
19389;DHT22;9830;41.876;23.474;2023-04-06T02:05:52;1.10;99.90
19389;DHT22;9830;41.876;23.474;2023-04-06T02:08:17;1.00;99.90
19389;DHT22;9830;41.876;23.474;2023-04-06T02:10:43;0.90;99.90
19389;DHT22;9830;41.876;23.474;2023-04-06T02:13:09;0.90;99.90
19389;DHT22;9830;41.876;23.474;2023-04-06T02:15:34;0.90;99.90
19389;DHT22;9830;41.876;23.474;2023-04-06T02:18:00;0.80;99.90
19389;DHT22;9830;41.876;23.474;2023-04-06T02:20:26;0.80;99.90
19389;DHT22;9830;41.876;23.474;2023-04-06T02:22:52;0.80;99.90
19389;DHT22;9830;41.876;23.474;2023-04-06T02:25:17;0.80;99.90
19389;DHT22;9830;41.876;23.474;2023-04-06T02:27:43;0.70;99.90
19389;DHT22;9830;41.876;23.474;2023-04-06T02:30:09;0.70;99.90
19389;DHT22;9830;41.876;23.474;2023-04-06T02:32:35;0.70;99.90
19389;DHT22;9830;41.876;23.474;2023-04-06T02:35:01;0.60;99.90
19389;DHT22;9830;41.876;23.474;2023-04-06T02:37:26;0.60;99.90
19389;DHT22;9830;41.876;23.474;2023-04-06T02:39:52;0.50;99.90
19389;DHT22;9830;41.876;23.474;2023-04-06T02:42:18;0.50;99.90
19389;DHT22;9830;41.876;23.474;2023-04-06T02:44:44;0.60;99.90
19389;DHT22;9830;41.876;23.474;2023-04-06T02:47:09;0.60;99.90
19389;DHT22;9830;41.876;23.474;2023-04-06T02:49:36;0.70;99.90
19389;DHT22;9830;41.876;23.474;2023-04-06T02:52:02;0.60;99.90
19389;DHT22;9830;41.876;23.474;2023-04-06T02:54:28;0.60;99.90
19389;DHT22;9830;41.876;23.474;2023-04-06T02:56:53;0.70;99.90
19389;DHT22;9830;41.876;23.474;2023-04-06T02:59:19;0.70;99.90
19389;DHT22;9830;41.876;23.474;2023-04-06T03:01:45;0.70;99.90
19389;DHT22;9830;41.876;23.474;2023-04-06T03:04:11;0.70;99.90
19389;DHT22;9830;41.876;23.474;2023-04-06T03:06:36;0.70;99.90
19389;DHT22;9830;41.876;23.474;2023-04-06T03:09:02;0.70;99.90
19389;DHT22;9830;41.876;23.474;2023-04-06T03:11:28;0.70;99.90
19389;DHT22;9830;41.876;23.474;2023-04-06T03:13:54;0.70;99.90
19389;DHT22;9830;41.876;23.474;2023-04-06T03:16:20;0.70;99.90
19389;DHT22;9830;41.876;23.474;2023-04-06T03:18:46;0.60;99.90
19389;DHT22;9830;41.876;23.474;2023-04-06T03:21:13;0.60;99.90
19389;DHT22;9830;41.876;23.474;2023-04-06T03:23:41;0.60;99.90
19389;DHT22;9830;41.876;23.474;2023-04-06T03:26:06;0.50;99.90
19389;DHT22;9830;41.876;23.474;2023-04-06T03:28:32;0.40;99.90
19389;DHT22;9830;41.876;23.474;2023-04-06T03:30:58;0.30;99.90
19389;DHT22;9830;41.876;23.474;2023-04-06T03:33:24;0.20;99.90
19389;DHT22;9830;41.876;23.474;2023-04-06T03:35:52;0.20;99.90
19389;DHT22;9830;41.876;23.474;2023-04-06T03:38:18;0.10;99.90
19389;DHT22;9830;41.876;23.474;2023-04-06T03:40:44;-0.10;99.90
19389;DHT22;9830;41.876;23.474;2023-04-06T03:43:09;-0.10;99.90
19389;DHT22;9830;41.876;23.474;2023-04-06T03:45:35;-0.20;99.90
19389;DHT22;9830;41.876;23.474;2023-04-06T03:48:01;-0.30;99.90
19389;DHT22;9830;41.876;23.474;2023-04-06T03:50:26;-0.30;99.90
19389;DHT22;9830;41.876;23.474;2023-04-06T03:52:52;-0.30;99.90
19389;DHT22;9830;41.876;23.474;2023-04-06T03:55:18;-0.40;99.90
19389;DHT22;9830;41.876;23.474;2023-04-06T03:57:44;-0.50;99.90
19389;DHT22;9830;41.876;23.474;2023-04-06T04:00:10;-0.50;99.90
19389;DHT22;9830;41.876;23.474;2023-04-06T04:02:36;-0.50;99.90
19389;DHT22;9830;41.876;23.474;2023-04-06T04:05:02;-0.50;99.90
19389;DHT22;9830;41.876;23.474;2023-04-06T04:07:28;-0.50;99.90
19389;DHT22;9830;41.876;23.474;2023-04-06T04:09:53;-0.50;99.90
19389;DHT22;9830;41.876;23.474;2023-04-06T04:12:19;-0.40;99.90
19389;DHT22;9830;41.876;23.474;2023-04-06T04:14:45;-0.50;99.90
19389;DHT22;9830;41.876;23.474;2023-04-06T04:17:11;-0.40;99.90
19389;DHT22;9830;41.876;23.474;2023-04-06T04:19:36;-0.30;99.90
19389;DHT22;9830;41.876;23.474;2023-04-06T04:22:02;-0.30;99.90
19389;DHT22;9830;41.876;23.474;2023-04-06T04:24:30;-0.30;99.90
19389;DHT22;9830;41.876;23.474;2023-04-06T04:26:56;-0.10;99.90
19389;DHT22;9830;41.876;23.474;2023-04-06T04:29:24;0.20;99.90
19389;DHT22;9830;41.876;23.474;2023-04-06T04:31:50;0.50;99.90
19389;DHT22;9830;41.876;23.474;2023-04-06T04:34:18;1.30;99.90
19389;DHT22;9830;41.876;23.474;2023-04-06T04:36:46;1.80;99.90
19389;DHT22;9830;41.876;23.474;2023-04-06T04:39:11;2.50;99.90
19389;DHT22;9830;41.876;23.474;2023-04-06T04:41:37;3.70;99.90
19389;DHT22;9830;41.876;23.474;2023-04-06T04:44:03;4.30;99.90
19389;DHT22;9830;41.876;23.474;2023-04-06T04:46:29;5.00;99.90
19389;DHT22;9830;41.876;23.474;2023-04-06T04:48:55;5.20;99.90
19389;DHT22;9830;41.876;23.474;2023-04-06T04:51:21;6.00;96.80
19389;DHT22;9830;41.876;23.474;2023-04-06T04:53:47;6.80;93.10
19389;DHT22;9830;41.876;23.474;2023-04-06T04:56:13;6.80;90.20
19389;DHT22;9830;41.876;23.474;2023-04-06T04:58:41;7.00;91.90
19389;DHT22;9830;41.876;23.474;2023-04-06T05:01:08;8.50;83.80
19389;DHT22;9830;41.876;23.474;2023-04-06T05:03:36;8.90;75.00
19389;DHT22;9830;41.876;23.474;2023-04-06T05:06:04;9.50;72.30
19389;DHT22;9830;41.876;23.474;2023-04-06T05:08:30;8.90;70.60
19389;DHT22;9830;41.876;23.474;2023-04-06T05:10:56;8.80;74.00
19389;DHT22;9830;41.876;23.474;2023-04-06T05:13:22;9.40;69.20
19389;DHT22;9830;41.876;23.474;2023-04-06T05:15:48;9.70;67.80
19389;DHT22;9830;41.876;23.474;2023-04-06T05:18:15;9.80;67.00
19389;DHT22;9830;41.876;23.474;2023-04-06T05:20:42;9.50;68.00
19389;DHT22;9830;41.876;23.474;2023-04-06T05:23:08;9.90;62.90
19389;DHT22;9830;41.876;23.474;2023-04-06T05:25:35;10.60;60.70
19389;DHT22;9830;41.876;23.474;2023-04-06T05:28:01;11.30;58.00
19389;DHT22;9830;41.876;23.474;2023-04-06T05:30:26;11.00;57.20
19389;DHT22;9830;41.876;23.474;2023-04-06T05:32:53;12.50;54.00
19389;DHT22;9830;41.876;23.474;2023-04-06T05:35:19;11.80;54.20
19389;DHT22;9830;41.876;23.474;2023-04-06T05:37:45;12.30;53.30
19389;DHT22;9830;41.876;23.474;2023-04-06T05:40:11;13.20;50.10
19389;DHT22;9830;41.876;23.474;2023-04-06T05:42:41;13.20;50.40
19389;DHT22;9830;41.876;23.474;2023-04-06T05:45:09;13.00;50.90
19389;DHT22;9830;41.876;23.474;2023-04-06T05:47:36;13.40;49.30
19389;DHT22;9830;41.876;23.474;2023-04-06T05:50:02;13.80;48.50
19389;DHT22;9830;41.876;23.474;2023-04-06T05:52:29;13.40;48.00
19389;DHT22;9830;41.876;23.474;2023-04-06T05:54:55;12.70;50.20
19389;DHT22;9830;41.876;23.474;2023-04-06T05:57:20;13.00;49.70
19389;DHT22;9830;41.876;23.474;2023-04-06T05:59:46;13.50;48.80
19389;DHT22;9830;41.876;23.474;2023-04-06T06:02:12;14.30;46.80
19389;DHT22;9830;41.876;23.474;2023-04-06T06:04:39;14.80;45.00
19389;DHT22;9830;41.876;23.474;2023-04-06T06:07:05;13.20;49.70
19389;DHT22;9830;41.876;23.474;2023-04-06T06:09:31;13.40;48.30
19389;DHT22;9830;41.876;23.474;2023-04-06T06:11:57;12.20;52.10
19389;DHT22;9830;41.876;23.474;2023-04-06T06:14:22;12.20;50.40
19389;DHT22;9830;41.876;23.474;2023-04-06T06:16:49;12.50;50.80
19389;DHT22;9830;41.876;23.474;2023-04-06T06:19:14;14.00;47.70
19389;DHT22;9830;41.876;23.474;2023-04-06T06:21:43;14.20;43.60
19389;DHT22;9830;41.876;23.474;2023-04-06T06:24:09;13.70;45.60
19389;DHT22;9830;41.876;23.474;2023-04-06T06:26:35;13.60;45.30
19389;DHT22;9830;41.876;23.474;2023-04-06T06:29:03;12.50;46.40
19389;DHT22;9830;41.876;23.474;2023-04-06T06:31:31;12.20;49.20
19389;DHT22;9830;41.876;23.474;2023-04-06T06:33:56;12.00;48.80
19389;DHT22;9830;41.876;23.474;2023-04-06T06:36:22;11.40;48.80
19389;DHT22;9830;41.876;23.474;2023-04-06T06:38:48;11.30;51.00
19389;DHT22;9830;41.876;23.474;2023-04-06T06:41:15;10.40;50.70
19389;DHT22;9830;41.876;23.474;2023-04-06T06:43:41;10.00;52.00
19389;DHT22;9830;41.876;23.474;2023-04-06T06:46:07;9.50;53.30
19389;DHT22;9830;41.876;23.474;2023-04-06T06:48:32;8.30;57.50
19389;DHT22;9830;41.876;23.474;2023-04-06T06:50:58;7.90;61.10
19389;DHT22;9830;41.876;23.474;2023-04-06T06:53:24;7.80;61.70
19389;DHT22;9830;41.876;23.474;2023-04-06T06:55:50;7.80;63.30
19389;DHT22;9830;41.876;23.474;2023-04-06T06:58:18;7.80;63.40
19389;DHT22;9830;41.876;23.474;2023-04-06T07:00:44;7.60;64.50
19389;DHT22;9830;41.876;23.474;2023-04-06T07:03:10;8.60;59.30
19389;DHT22;9830;41.876;23.474;2023-04-06T07:05:36;8.80;58.70
19389;DHT22;9830;41.876;23.474;2023-04-06T07:08:02;9.70;56.00
19389;DHT22;9830;41.876;23.474;2023-04-06T07:10:28;10.00;53.80
19389;DHT22;9830;41.876;23.474;2023-04-06T07:12:53;10.80;53.40
19389;DHT22;9830;41.876;23.474;2023-04-06T07:15:19;11.70;50.90
19389;DHT22;9830;41.876;23.474;2023-04-06T07:17:45;12.20;47.70
19389;DHT22;9830;41.876;23.474;2023-04-06T07:20:12;12.50;47.40
19389;DHT22;9830;41.876;23.474;2023-04-06T07:22:38;11.60;47.30
19389;DHT22;9830;41.876;23.474;2023-04-06T07:25:05;13.00;47.70
19389;DHT22;9830;41.876;23.474;2023-04-06T07:27:31;13.30;46.60
19389;DHT22;9830;41.876;23.474;2023-04-06T07:29:57;13.70;45.50
19389;DHT22;9830;41.876;23.474;2023-04-06T07:32:23;13.50;44.00
19389;DHT22;9830;41.876;23.474;2023-04-06T07:34:49;13.40;43.90
19389;DHT22;9830;41.876;23.474;2023-04-06T07:37:15;13.80;44.40
19389;DHT22;9830;41.876;23.474;2023-04-06T07:39:41;14.30;44.40
19389;DHT22;9830;41.876;23.474;2023-04-06T07:42:07;13.90;43.10
19389;DHT22;9830;41.876;23.474;2023-04-06T07:44:32;14.70;43.50
19389;DHT22;9830;41.876;23.474;2023-04-06T07:46:58;14.40;41.80
19389;DHT22;9830;41.876;23.474;2023-04-06T07:49:24;14.50;42.90
19389;DHT22;9830;41.876;23.474;2023-04-06T07:51:51;14.50;42.80
19389;DHT22;9830;41.876;23.474;2023-04-06T07:54:17;14.30;42.40
19389;DHT22;9830;41.876;23.474;2023-04-06T07:56:45;14.30;42.80
19389;DHT22;9830;41.876;23.474;2023-04-06T07:59:11;14.00;43.40
19389;DHT22;9830;41.876;23.474;2023-04-06T08:01:39;15.40;42.00
19389;DHT22;9830;41.876;23.474;2023-04-06T08:04:05;14.70;41.20
19389;DHT22;9830;41.876;23.474;2023-04-06T08:06:31;15.30;42.20
19389;DHT22;9830;41.876;23.474;2023-04-06T08:08:57;15.50;40.80
19389;DHT22;9830;41.876;23.474;2023-04-06T08:11:23;15.20;40.60
19389;DHT22;9830;41.876;23.474;2023-04-06T08:13:48;15.20;41.40
19389;DHT22;9830;41.876;23.474;2023-04-06T08:16:15;15.30;41.60
19389;DHT22;9830;41.876;23.474;2023-04-06T08:18:41;15.20;42.20
19389;DHT22;9830;41.876;23.474;2023-04-06T08:21:06;15.60;40.90
19389;DHT22;9830;41.876;23.474;2023-04-06T08:23:32;15.10;41.70
19389;DHT22;9830;41.876;23.474;2023-04-06T08:25:58;14.10;42.60
19389;DHT22;9830;41.876;23.474;2023-04-06T08:28:24;13.90;44.50
19389;DHT22;9830;41.876;23.474;2023-04-06T08:30:50;14.50;43.00
19389;DHT22;9830;41.876;23.474;2023-04-06T08:33:15;14.50;42.30
19389;DHT22;9830;41.876;23.474;2023-04-06T08:35:41;15.00;41.80
19389;DHT22;9830;41.876;23.474;2023-04-06T08:38:07;14.70;41.70
19389;DHT22;9830;41.876;23.474;2023-04-06T08:40:40;14.60;42.00
19389;DHT22;9830;41.876;23.474;2023-04-06T08:43:09;14.50;43.10
19389;DHT22;9830;41.876;23.474;2023-04-06T08:45:38;14.40;43.90
19389;DHT22;9830;41.876;23.474;2023-04-06T08:48:05;14.20;43.40
19389;DHT22;9830;41.876;23.474;2023-04-06T08:50:33;14.80;43.30
19389;DHT22;9830;41.876;23.474;2023-04-06T08:52:59;15.00;42.00
19389;DHT22;9830;41.876;23.474;2023-04-06T08:55:26;15.50;42.00
19389;DHT22;9830;41.876;23.474;2023-04-06T08:57:52;15.50;42.20
19389;DHT22;9830;41.876;23.474;2023-04-06T09:00:21;15.30;41.70
19389;DHT22;9830;41.876;23.474;2023-04-06T09:02:49;15.40;42.20
19389;DHT22;9830;41.876;23.474;2023-04-06T09:05:15;15.60;41.70
19389;DHT22;9830;41.876;23.474;2023-04-06T09:07:41;15.40;41.10
19389;DHT22;9830;41.876;23.474;2023-04-06T09:10:08;15.60;41.40
19389;DHT22;9830;41.876;23.474;2023-04-06T09:12:34;16.00;40.70
19389;DHT22;9830;41.876;23.474;2023-04-06T09:15:02;16.40;39.70
19389;DHT22;9830;41.876;23.474;2023-04-06T09:17:32;16.10;39.80
19389;DHT22;9830;41.876;23.474;2023-04-06T09:20:03;16.20;41.90
19389;DHT22;9830;41.876;23.474;2023-04-06T09:22:37;16.50;40.20
19389;DHT22;9830;41.876;23.474;2023-04-06T09:25:04;16.90;38.60
19389;DHT22;9830;41.876;23.474;2023-04-06T09:27:32;16.40;40.30
19389;DHT22;9830;41.876;23.474;2023-04-06T09:30:09;16.40;41.40
19389;DHT22;9830;41.876;23.474;2023-04-06T09:32:55;16.90;39.40
19389;DHT22;9830;41.876;23.474;2023-04-06T09:35:22;16.20;40.00
19389;DHT22;9830;41.876;23.474;2023-04-06T09:37:49;16.30;41.50
19389;DHT22;9830;41.876;23.474;2023-04-06T09:40:16;16.60;40.20
19389;DHT22;9830;41.876;23.474;2023-04-06T09:42:46;14.90;41.20
19389;DHT22;9830;41.876;23.474;2023-04-06T09:45:13;14.30;44.60
19389;DHT22;9830;41.876;23.474;2023-04-06T09:47:40;14.50;44.00
19389;DHT22;9830;41.876;23.474;2023-04-06T09:50:10;14.80;44.30
19389;DHT22;9830;41.876;23.474;2023-04-06T09:52:48;14.50;44.80
19389;DHT22;9830;41.876;23.474;2023-04-06T09:55:40;13.80;45.70
19389;DHT22;9830;41.876;23.474;2023-04-06T09:58:13;13.60;45.60
19389;DHT22;9830;41.876;23.474;2023-04-06T10:01:05;13.70;46.00
19389;DHT22;9830;41.876;23.474;2023-04-06T10:03:47;13.40;47.00
19389;DHT22;9830;41.876;23.474;2023-04-06T10:06:20;13.10;46.40
19389;DHT22;9830;41.876;23.474;2023-04-06T10:08:49;13.20;45.80
19389;DHT22;9830;41.876;23.474;2023-04-06T10:11:17;12.70;45.80
19389;DHT22;9830;41.876;23.474;2023-04-06T10:13:45;12.60;48.60
19389;DHT22;9830;41.876;23.474;2023-04-06T10:16:14;12.60;47.30
19389;DHT22;9830;41.876;23.474;2023-04-06T10:18:49;12.70;47.50
19389;DHT22;9830;41.876;23.474;2023-04-06T10:21:20;13.20;46.50
19389;DHT22;9830;41.876;23.474;2023-04-06T10:23:49;13.10;46.30
19389;DHT22;9830;41.876;23.474;2023-04-06T10:26:19;12.60;45.10
19389;DHT22;9830;41.876;23.474;2023-04-06T10:28:47;13.30;47.00
19389;DHT22;9830;41.876;23.474;2023-04-06T10:31:13;13.20;48.00
19389;DHT22;9830;41.876;23.474;2023-04-06T10:33:39;13.40;48.00
19389;DHT22;9830;41.876;23.474;2023-04-06T10:36:23;13.00;46.40
19389;DHT22;9830;41.876;23.474;2023-04-06T10:38:55;13.00;46.90
19389;DHT22;9830;41.876;23.474;2023-04-06T10:41:22;13.00;44.60
19389;DHT22;9830;41.876;23.474;2023-04-06T10:43:55;12.60;46.30
19389;DHT22;9830;41.876;23.474;2023-04-06T10:46:30;12.70;47.00
19389;DHT22;9830;41.876;23.474;2023-04-06T10:48:56;12.80;45.80
19389;DHT22;9830;41.876;23.474;2023-04-06T10:51:27;12.70;47.10
19389;DHT22;9830;41.876;23.474;2023-04-06T10:53:54;12.90;48.50
19389;DHT22;9830;41.876;23.474;2023-04-06T10:56:24;12.90;47.10
19389;DHT22;9830;41.876;23.474;2023-04-06T10:58:53;12.70;48.30
19389;DHT22;9830;41.876;23.474;2023-04-06T11:01:22;12.60;47.80
19389;DHT22;9830;41.876;23.474;2023-04-06T11:03:56;12.40;49.40
19389;DHT22;9830;41.876;23.474;2023-04-06T11:06:28;12.50;47.10
19389;DHT22;9830;41.876;23.474;2023-04-06T11:08:57;12.40;48.00
19389;DHT22;9830;41.876;23.474;2023-04-06T11:11:24;12.90;47.40
19389;DHT22;9830;41.876;23.474;2023-04-06T11:13:52;12.60;46.60
19389;DHT22;9830;41.876;23.474;2023-04-06T11:16:22;12.60;51.00
19389;DHT22;9830;41.876;23.474;2023-04-06T11:21:15;12.60;46.00
19389;DHT22;9830;41.876;23.474;2023-04-06T11:23:41;12.60;47.40
19389;DHT22;9830;41.876;23.474;2023-04-06T11:26:11;12.60;46.10
19389;DHT22;9830;41.876;23.474;2023-04-06T11:28:38;12.80;44.90
19389;DHT22;9830;41.876;23.474;2023-04-06T11:31:04;12.90;46.60
19389;DHT22;9830;41.876;23.474;2023-04-06T11:33:35;12.80;45.80
19389;DHT22;9830;41.876;23.474;2023-04-06T11:36:02;12.60;46.60
19389;DHT22;9830;41.876;23.474;2023-04-06T11:38:28;12.60;46.80
19389;DHT22;9830;41.876;23.474;2023-04-06T11:40:55;12.70;46.00
19389;DHT22;9830;41.876;23.474;2023-04-06T11:43:30;12.80;45.50
19389;DHT22;9830;41.876;23.474;2023-04-06T11:46:03;12.20;46.80
19389;DHT22;9830;41.876;23.474;2023-04-06T11:48:30;12.00;47.10
19389;DHT22;9830;41.876;23.474;2023-04-06T11:50:57;12.00;48.40
19389;DHT22;9830;41.876;23.474;2023-04-06T11:53:24;12.00;46.50
19389;DHT22;9830;41.876;23.474;2023-04-06T11:55:50;12.20;47.60
19389;DHT22;9830;41.876;23.474;2023-04-06T11:58:16;11.80;46.20
19389;DHT22;9830;41.876;23.474;2023-04-06T12:00:43;11.70;47.80
19389;DHT22;9830;41.876;23.474;2023-04-06T12:03:11;11.60;46.70
19389;DHT22;9830;41.876;23.474;2023-04-06T12:05:37;11.50;48.00
19389;DHT22;9830;41.876;23.474;2023-04-06T12:08:04;11.90;46.90
19389;DHT22;9830;41.876;23.474;2023-04-06T12:10:29;11.80;47.00
19389;DHT22;9830;41.876;23.474;2023-04-06T12:12:55;11.70;46.40
19389;DHT22;9830;41.876;23.474;2023-04-06T12:15:21;11.80;47.20
19389;DHT22;9830;41.876;23.474;2023-04-06T12:17:47;12.00;49.00
19389;DHT22;9830;41.876;23.474;2023-04-06T12:20:15;11.70;46.50
19389;DHT22;9830;41.876;23.474;2023-04-06T12:22:40;11.60;45.80
19389;DHT22;9830;41.876;23.474;2023-04-06T12:25:07;11.70;46.70
19389;DHT22;9830;41.876;23.474;2023-04-06T12:27:33;11.60;45.70
19389;DHT22;9830;41.876;23.474;2023-04-06T12:29:59;11.50;44.90
19389;DHT22;9830;41.876;23.474;2023-04-06T12:32:24;11.30;47.80
19389;DHT22;9830;41.876;23.474;2023-04-06T12:34:53;11.50;46.80
19389;DHT22;9830;41.876;23.474;2023-04-06T12:37:19;11.50;46.40
19389;DHT22;9830;41.876;23.474;2023-04-06T12:39:46;11.30;45.20
19389;DHT22;9830;41.876;23.474;2023-04-06T12:42:12;11.20;47.20
19389;DHT22;9830;41.876;23.474;2023-04-06T12:44:39;11.20;46.30
19389;DHT22;9830;41.876;23.474;2023-04-06T12:47:05;11.10;46.80
19389;DHT22;9830;41.876;23.474;2023-04-06T12:49:33;11.10;47.30
19389;DHT22;9830;41.876;23.474;2023-04-06T12:51:58;11.20;46.20
19389;DHT22;9830;41.876;23.474;2023-04-06T12:54:24;10.60;46.30
19389;DHT22;9830;41.876;23.474;2023-04-06T12:56:52;10.70;48.20
19389;DHT22;9830;41.876;23.474;2023-04-06T12:59:17;11.10;48.50
19389;DHT22;9830;41.876;23.474;2023-04-06T13:01:43;11.00;46.00
19389;DHT22;9830;41.876;23.474;2023-04-06T13:04:10;10.80;46.00
19389;DHT22;9830;41.876;23.474;2023-04-06T13:06:38;10.80;46.00
19389;DHT22;9830;41.876;23.474;2023-04-06T13:09:04;10.70;47.20
19389;DHT22;9830;41.876;23.474;2023-04-06T13:11:31;10.70;46.80
19389;DHT22;9830;41.876;23.474;2023-04-06T13:13:57;10.90;48.30
19389;DHT22;9830;41.876;23.474;2023-04-06T13:16:22;10.50;47.80
19389;DHT22;9830;41.876;23.474;2023-04-06T13:18:48;10.50;47.80
19389;DHT22;9830;41.876;23.474;2023-04-06T13:21:16;10.40;47.00
19389;DHT22;9830;41.876;23.474;2023-04-06T13:23:42;10.60;49.40
19389;DHT22;9830;41.876;23.474;2023-04-06T13:26:09;10.60;47.20
19389;DHT22;9830;41.876;23.474;2023-04-06T13:28:36;10.30;48.80
19389;DHT22;9830;41.876;23.474;2023-04-06T13:31:03;10.50;49.90
19389;DHT22;9830;41.876;23.474;2023-04-06T13:33:29;10.60;48.70
19389;DHT22;9830;41.876;23.474;2023-04-06T13:35:56;10.50;48.70
19389;DHT22;9830;41.876;23.474;2023-04-06T13:38:22;10.50;48.50
19389;DHT22;9830;41.876;23.474;2023-04-06T13:40:50;10.60;49.80
19389;DHT22;9830;41.876;23.474;2023-04-06T13:43:16;10.40;49.10
19389;DHT22;9830;41.876;23.474;2023-04-06T13:45:49;10.00;50.00
19389;DHT22;9830;41.876;23.474;2023-04-06T13:48:16;10.20;50.30
19389;DHT22;9830;41.876;23.474;2023-04-06T13:50:42;10.10;49.60
19389;DHT22;9830;41.876;23.474;2023-04-06T13:53:08;10.00;50.60
19389;DHT22;9830;41.876;23.474;2023-04-06T13:55:34;10.10;50.30
19389;DHT22;9830;41.876;23.474;2023-04-06T13:58:00;9.80;50.00
19389;DHT22;9830;41.876;23.474;2023-04-06T14:00:25;10.00;50.80
19389;DHT22;9830;41.876;23.474;2023-04-06T14:02:53;10.00;50.70
19389;DHT22;9830;41.876;23.474;2023-04-06T14:05:19;9.90;51.60
19389;DHT22;9830;41.876;23.474;2023-04-06T14:07:45;9.70;51.40
19389;DHT22;9830;41.876;23.474;2023-04-06T14:10:11;9.50;52.00
19389;DHT22;9830;41.876;23.474;2023-04-06T14:12:41;9.60;52.30
19389;DHT22;9830;41.876;23.474;2023-04-06T14:15:08;9.80;51.50
19389;DHT22;9830;41.876;23.474;2023-04-06T14:17:34;9.80;51.50
19389;DHT22;9830;41.876;23.474;2023-04-06T14:19:59;9.50;51.90
19389;DHT22;9830;41.876;23.474;2023-04-06T14:22:25;9.50;52.80
19389;DHT22;9830;41.876;23.474;2023-04-06T14:24:51;9.50;52.70
19389;DHT22;9830;41.876;23.474;2023-04-06T14:27:17;9.30;52.70
19389;DHT22;9830;41.876;23.474;2023-04-06T14:29:42;9.30;53.30
19389;DHT22;9830;41.876;23.474;2023-04-06T14:32:08;9.30;53.60
19389;DHT22;9830;41.876;23.474;2023-04-06T14:34:37;9.20;54.60
19389;DHT22;9830;41.876;23.474;2023-04-06T14:37:02;9.10;54.40
19389;DHT22;9830;41.876;23.474;2023-04-06T14:39:28;9.00;54.80
19389;DHT22;9830;41.876;23.474;2023-04-06T14:41:54;9.00;56.30
19389;DHT22;9830;41.876;23.474;2023-04-06T14:44:20;8.90;55.20
19389;DHT22;9830;41.876;23.474;2023-04-06T14:46:46;8.80;56.60
19389;DHT22;9830;41.876;23.474;2023-04-06T14:49:12;8.50;57.10
19389;DHT22;9830;41.876;23.474;2023-04-06T14:51:38;8.50;57.90
19389;DHT22;9830;41.876;23.474;2023-04-06T14:54:04;8.40;57.40
19389;DHT22;9830;41.876;23.474;2023-04-06T14:56:30;8.10;58.20
19389;DHT22;9830;41.876;23.474;2023-04-06T14:58:59;8.20;58.00
19389;DHT22;9830;41.876;23.474;2023-04-06T15:01:28;7.90;58.30
19389;DHT22;9830;41.876;23.474;2023-04-06T15:03:55;7.80;58.50
19389;DHT22;9830;41.876;23.474;2023-04-06T15:06:20;7.70;59.60
19389;DHT22;9830;41.876;23.474;2023-04-06T15:08:48;7.80;59.80
19389;DHT22;9830;41.876;23.474;2023-04-06T15:11:15;7.80;61.20
19389;DHT22;9830;41.876;23.474;2023-04-06T15:13:41;7.90;60.70
19389;DHT22;9830;41.876;23.474;2023-04-06T15:16:07;7.80;59.30
19389;DHT22;9830;41.876;23.474;2023-04-06T15:18:33;7.60;59.50
19389;DHT22;9830;41.876;23.474;2023-04-06T15:20:59;7.30;60.80
19389;DHT22;9830;41.876;23.474;2023-04-06T15:23:25;7.20;62.00
19389;DHT22;9830;41.876;23.474;2023-04-06T15:25:55;7.20;63.40
19389;DHT22;9830;41.876;23.474;2023-04-06T15:28:20;7.20;63.50
19389;DHT22;9830;41.876;23.474;2023-04-06T15:30:46;7.10;63.80
19389;DHT22;9830;41.876;23.474;2023-04-06T15:33:12;7.00;64.40
19389;DHT22;9830;41.876;23.474;2023-04-06T15:35:38;7.00;64.50
19389;DHT22;9830;41.876;23.474;2023-04-06T15:38:05;7.00;65.00